createdAt,value
2022-12-31T00:01:25.445Z,6.70
2022-12-31T00:03:53.393Z,6.75
2022-12-31T00:06:32.899Z,6.80
2022-12-31T00:09:05.485Z,6.84
2022-12-31T00:11:34.369Z,6.89
2022-12-31T00:14:01.629Z,6.93
2022-12-31T00:16:32.975Z,6.92
2022-12-31T00:19:01.534Z,6.93
2022-12-31T00:21:31.107Z,6.85
2022-12-31T00:23:59.333Z,6.83
2022-12-31T00:26:39.171Z,6.76
2022-12-31T00:29:06.588Z,6.75
2022-12-31T00:31:37.195Z,6.69
2022-12-31T00:34:05.548Z,6.58
2022-12-31T00:36:36.077Z,6.51
2022-12-31T00:39:07.599Z,6.50
2022-12-31T00:41:35.461Z,6.45
2022-12-31T00:44:04.397Z,6.38
2022-12-31T00:46:32.161Z,6.32
2022-12-31T00:49:01.336Z,6.20
2022-12-31T00:51:29.042Z,6.13
2022-12-31T00:53:58.225Z,6.04
2022-12-31T00:56:28.716Z,5.95
2022-12-31T00:58:56.773Z,5.88
2022-12-31T01:01:27.342Z,5.82
2022-12-31T01:04:02.191Z,5.80
2022-12-31T01:06:31.195Z,5.77
2022-12-31T01:08:58.784Z,5.79
2022-12-31T01:11:29.668Z,5.79
2022-12-31T01:14:02.802Z,5.78
2022-12-31T01:16:43.492Z,5.76
2022-12-31T01:19:13.828Z,5.74
2022-12-31T01:21:42.449Z,5.79
2022-12-31T01:24:11.022Z,5.79
2022-12-31T01:26:45.393Z,5.82
2022-12-31T01:29:13.363Z,5.87
2022-12-31T01:31:41.637Z,5.90
2022-12-31T01:34:10.355Z,5.90
2022-12-31T01:36:38.650Z,5.93
2022-12-31T01:39:09.171Z,5.97
2022-12-31T01:41:42.753Z,5.99
2022-12-31T01:44:12.861Z,6.03
2022-12-31T01:46:46.581Z,6.05
2022-12-31T01:49:26.624Z,6.05
2022-12-31T01:52:17.514Z,6.04
2022-12-31T01:55:01.363Z,6.05
2022-12-31T01:57:35.903Z,6.10
2022-12-31T02:00:04.497Z,6.07
2022-12-31T02:02:31.850Z,6.09
2022-12-31T02:05:03.078Z,6.07
2022-12-31T02:07:30.775Z,6.07
2022-12-31T02:09:58.316Z,6.06
2022-12-31T02:12:25.853Z,6.05
2022-12-31T02:14:54.768Z,6.06
2022-12-31T02:17:44.116Z,6.05
2022-12-31T02:20:20.625Z,6.05
2022-12-31T02:23:18.757Z,6.05
2022-12-31T02:25:55.103Z,6.04
2022-12-31T02:29:05.861Z,6.01
2022-12-31T02:31:54.794Z,6.05
2022-12-31T02:34:33.094Z,6.05
2022-12-31T02:37:03.946Z,6.03
2022-12-31T02:39:32.883Z,6.04
2022-12-31T02:42:01.077Z,6.02
2022-12-31T02:44:34.827Z,6.03
2022-12-31T02:47:20.615Z,6.01
2022-12-31T02:49:56.511Z,6.02
2022-12-31T02:52:51.736Z,6.05
2022-12-31T02:55:53.468Z,6.05
2022-12-31T02:58:56.977Z,6.06
2022-12-31T03:01:48.867Z,6.07
2022-12-31T03:04:32.411Z,6.07
2022-12-31T03:07:15.627Z,6.12
2022-12-31T03:09:43.523Z,6.12
2022-12-31T03:12:31.908Z,6.17
2022-12-31T03:15:01.547Z,6.22
2022-12-31T03:17:29.195Z,6.26
2022-12-31T03:20:15.876Z,6.28
2022-12-31T03:22:43.854Z,6.34
2022-12-31T03:25:54.723Z,6.36
2022-12-31T03:28:24.760Z,6.39
2022-12-31T03:31:00.652Z,6.42
2022-12-31T03:33:36.483Z,6.41
2022-12-31T03:36:13.004Z,6.37
2022-12-31T03:38:41.162Z,6.37
2022-12-31T03:41:11.292Z,6.38
2022-12-31T03:43:39.070Z,6.34
2022-12-31T03:46:06.563Z,6.38
2022-12-31T03:48:35.091Z,6.42
2022-12-31T03:51:02.443Z,6.46
2022-12-31T03:53:31.037Z,6.47
2022-12-31T03:55:58.314Z,6.43
2022-12-31T03:58:26.832Z,6.50
2022-12-31T04:00:54.292Z,6.54
2022-12-31T04:03:21.513Z,6.53
2022-12-31T04:05:56.284Z,6.53
2022-12-31T04:08:24.466Z,6.60
2022-12-31T04:10:51.844Z,6.60
2022-12-31T04:13:21.265Z,6.62
2022-12-31T04:15:52.158Z,6.69
2022-12-31T04:18:19.347Z,6.70
2022-12-31T04:20:46.774Z,6.73
2022-12-31T04:23:14.172Z,6.83
2022-12-31T04:25:41.632Z,6.84
2022-12-31T04:28:09.076Z,6.84
2022-12-31T04:30:36.567Z,6.88
2022-12-31T04:33:04.076Z,6.85
2022-12-31T04:35:31.459Z,6.87
2022-12-31T04:37:59.023Z,6.87
2022-12-31T04:40:34.079Z,6.88
2022-12-31T04:43:01.532Z,6.89
2022-12-31T04:45:29.983Z,6.92
2022-12-31T04:47:57.505Z,6.92
2022-12-31T04:50:25.019Z,6.91
2022-12-31T04:52:53.456Z,6.91
2022-12-31T04:55:21.882Z,6.92
2022-12-31T04:57:49.351Z,6.94
2022-12-31T05:00:16.895Z,6.93
2022-12-31T05:02:44.068Z,6.98
2022-12-31T05:05:11.739Z,6.86
2022-12-31T05:07:39.183Z,6.90
2022-12-31T05:10:07.122Z,6.91
2022-12-31T05:12:34.677Z,6.94
2022-12-31T05:15:02.037Z,6.81
2022-12-31T05:17:29.498Z,6.73
2022-12-31T05:19:57.024Z,6.84
2022-12-31T05:22:30.062Z,6.77
2022-12-31T05:24:59.817Z,6.83
2022-12-31T05:27:28.576Z,6.83
2022-12-31T05:29:56.040Z,6.87
2022-12-31T05:32:23.508Z,6.87
2022-12-31T05:34:53.928Z,6.94
2022-12-31T05:37:21.434Z,6.98
2022-12-31T05:39:49.055Z,6.85
2022-12-31T05:42:16.371Z,6.90
2022-12-31T05:44:43.899Z,6.87
2022-12-31T05:47:11.336Z,6.88
2022-12-31T05:49:39.897Z,6.92
2022-12-31T05:52:09.383Z,6.92
2022-12-31T05:54:40.103Z,6.94
2022-12-31T05:57:08.270Z,7.00
2022-12-31T05:59:36.042Z,7.04
2022-12-31T06:02:03.178Z,7.09
2022-12-31T06:04:30.736Z,7.11
2022-12-31T06:07:00.182Z,7.12
2022-12-31T06:09:27.636Z,7.16
2022-12-31T06:11:55.099Z,7.23
2022-12-31T06:14:23.725Z,7.25
2022-12-31T06:16:50.948Z,7.28
2022-12-31T06:19:18.388Z,7.34
2022-12-31T06:21:45.959Z,7.35
2022-12-31T06:24:14.467Z,7.30
2022-12-31T06:26:41.915Z,7.30
2022-12-31T06:29:09.619Z,7.30
2022-12-31T06:31:37.565Z,7.26
2022-12-31T06:34:05.752Z,7.21
2022-12-31T06:36:33.594Z,7.16
2022-12-31T06:39:01.708Z,7.11
2022-12-31T06:41:29.113Z,7.03
2022-12-31T06:43:56.671Z,7.02
2022-12-31T06:46:24.364Z,6.96
2022-12-31T06:48:51.676Z,6.95
2022-12-31T06:51:21.340Z,6.85
2022-12-31T06:53:50.791Z,6.81
2022-12-31T06:56:20.555Z,6.83
2022-12-31T06:58:49.338Z,6.70
2022-12-31T07:01:49.527Z,6.74
2022-12-31T07:04:28.697Z,6.73
2022-12-31T07:07:13.153Z,6.71
2022-12-31T07:09:46.454Z,6.75
2022-12-31T07:12:40.001Z,6.72
2022-12-31T07:15:16.781Z,6.76
2022-12-31T07:18:14.241Z,6.79
2022-12-31T07:20:47.847Z,6.79
2022-12-31T07:23:14.843Z,6.87
2022-12-31T07:25:51.996Z,7.00
2022-12-31T07:28:35.139Z,7.08
2022-12-31T07:31:35.532Z,7.01
2022-12-31T07:34:16.567Z,6.92
2022-12-31T07:37:02.306Z,6.88
2022-12-31T07:40:08.593Z,7.04
2022-12-31T07:42:59.632Z,7.12
2022-12-31T07:46:12.003Z,7.27
2022-12-31T07:48:39.436Z,7.34
2022-12-31T07:51:07.083Z,7.38
2022-12-31T07:53:34.894Z,7.44
2022-12-31T07:56:05.836Z,7.45
2022-12-31T07:59:05.896Z,7.58
2022-12-31T08:02:03.865Z,7.69
2022-12-31T08:04:58.795Z,7.80
2022-12-31T08:07:36.725Z,7.85
2022-12-31T08:10:17.684Z,7.92
2022-12-31T08:12:49.909Z,8.04
2022-12-31T08:15:20.599Z,8.14
2022-12-31T08:17:50.609Z,8.27
2022-12-31T08:20:18.959Z,8.34
2022-12-31T08:23:10.146Z,8.47
2022-12-31T08:25:46.119Z,8.57
2022-12-31T08:28:30.654Z,8.64
2022-12-31T08:31:04.629Z,8.67
2022-12-31T08:33:53.358Z,8.73
2022-12-31T08:36:39.308Z,8.78
2022-12-31T08:39:25.035Z,8.84
2022-12-31T08:41:55.511Z,8.96
2022-12-31T08:44:44.999Z,9.01
2022-12-31T08:47:32.888Z,9.03
2022-12-31T08:50:03.031Z,9.05
2022-12-31T08:52:30.623Z,9.09
2022-12-31T08:54:58.568Z,9.15
2022-12-31T08:57:46.763Z,9.20
2022-12-31T09:00:19.500Z,9.21
2022-12-31T09:03:02.004Z,9.22
2022-12-31T09:05:58.488Z,9.23
2022-12-31T09:08:51.503Z,9.27
2022-12-31T09:11:42.876Z,9.63
2022-12-31T09:14:20.934Z,9.64
2022-12-31T09:17:09.339Z,9.54
2022-12-31T09:19:36.977Z,9.43
2022-12-31T09:22:04.734Z,9.39
2022-12-31T09:24:32.609Z,9.39
2022-12-31T09:27:30.596Z,9.33
2022-12-31T09:30:16.596Z,9.29
2022-12-31T09:33:00.599Z,9.29
2022-12-31T09:35:55.940Z,9.35
2022-12-31T09:39:09.015Z,9.23
2022-12-31T09:42:13.318Z,9.37
2022-12-31T09:45:11.693Z,9.45
2022-12-31T09:48:26.472Z,9.34
2022-12-31T09:51:10.954Z,9.48
2022-12-31T09:53:56.340Z,9.52
2022-12-31T09:56:33.277Z,9.65
2022-12-31T09:59:34.664Z,10.01
2022-12-31T10:02:41.711Z,10.36
2022-12-31T10:05:31.743Z,10.54
2022-12-31T10:08:22.321Z,11.18
2022-12-31T10:11:01.864Z,12.05
2022-12-31T10:13:58.136Z,12.37
2022-12-31T10:17:03.962Z,12.32
2022-12-31T10:19:45.920Z,12.22
2022-12-31T10:22:46.103Z,12.33
2022-12-31T10:25:38.476Z,12.69
2022-12-31T10:28:32.675Z,13.38
2022-12-31T10:31:20.776Z,13.66
2022-12-31T10:34:16.110Z,13.17
2022-12-31T10:36:58.446Z,13.12
2022-12-31T10:39:54.601Z,13.00
2022-12-31T10:42:55.441Z,13.12
2022-12-31T10:45:26.088Z,13.15
2022-12-31T10:48:12.830Z,13.19
2022-12-31T10:51:15.620Z,13.08
2022-12-31T10:54:19.297Z,12.79
2022-12-31T10:57:18.530Z,12.99
2022-12-31T11:00:13.515Z,13.41
2022-12-31T11:02:40.917Z,13.20
2022-12-31T11:05:48.360Z,12.83
2022-12-31T11:08:38.471Z,12.66
2022-12-31T11:11:27.211Z,12.44
2022-12-31T11:14:35.387Z,12.35
2022-12-31T11:17:37.969Z,12.33
2022-12-31T11:20:25.142Z,12.38
2022-12-31T11:23:10.439Z,12.38
2022-12-31T11:26:03.176Z,12.38
2022-12-31T11:28:47.617Z,12.44
2022-12-31T11:31:33.118Z,12.54
2022-12-31T11:34:05.955Z,12.66
2022-12-31T11:36:56.541Z,12.78
2022-12-31T11:39:32.012Z,12.94
2022-12-31T11:42:24.817Z,13.03
2022-12-31T11:45:13.639Z,13.15
2022-12-31T11:48:20.607Z,13.35
2022-12-31T11:50:54.147Z,13.50
2022-12-31T11:53:31.181Z,13.08
2022-12-31T11:56:10.580Z,12.88
2022-12-31T11:58:38.359Z,12.71
2022-12-31T12:01:29.435Z,12.58
2022-12-31T12:03:56.973Z,12.52
2022-12-31T12:06:29.493Z,12.47
2022-12-31T12:09:03.053Z,12.46
2022-12-31T12:11:37.898Z,12.43
2022-12-31T12:14:37.652Z,12.37
2022-12-31T12:17:09.707Z,12.37
2022-12-31T12:19:44.862Z,12.48
2022-12-31T12:22:22.991Z,12.45
2022-12-31T12:24:56.709Z,12.41
2022-12-31T12:27:30.805Z,12.40
2022-12-31T12:30:08.132Z,12.41
2022-12-31T12:33:02.126Z,12.31
2022-12-31T12:35:34.003Z,12.24
2022-12-31T12:38:12.604Z,12.24
2022-12-31T12:40:40.998Z,12.21
2022-12-31T12:43:23.917Z,12.07
2022-12-31T12:45:52.650Z,11.95
2022-12-31T12:48:44.256Z,11.82
2022-12-31T12:51:48.639Z,11.84
2022-12-31T12:54:25.368Z,11.76
2022-12-31T12:57:16.644Z,11.74
2022-12-31T13:00:04.905Z,11.80
2022-12-31T13:03:02.162Z,11.84
2022-12-31T13:05:40.665Z,11.73
2022-12-31T13:08:33.099Z,11.71
2022-12-31T13:11:26.560Z,11.67
2022-12-31T13:14:26.213Z,11.59
2022-12-31T13:17:35.420Z,11.58
2022-12-31T13:20:30.222Z,11.52
2022-12-31T13:23:06.850Z,11.45
2022-12-31T13:25:59.063Z,11.43
2022-12-31T13:28:28.421Z,11.39
2022-12-31T13:31:06.559Z,11.20
2022-12-31T13:33:39.683Z,11.15
2022-12-31T13:36:17.451Z,11.17
2022-12-31T13:38:52.451Z,11.19
2022-12-31T13:41:38.397Z,11.24
2022-12-31T13:44:30.435Z,11.20
2022-12-31T13:47:24.949Z,11.25
2022-12-31T13:50:20.170Z,11.19
2022-12-31T13:53:12.154Z,11.06
2022-12-31T13:55:58.180Z,11.16
2022-12-31T13:58:33.590Z,11.09
2022-12-31T14:01:12.691Z,11.08
2022-12-31T14:04:03.812Z,11.15
2022-12-31T14:06:53.625Z,11.25
2022-12-31T14:09:25.389Z,11.19
2022-12-31T14:12:13.729Z,11.27
2022-12-31T14:14:53.154Z,11.22
2022-12-31T14:17:34.096Z,11.20
2022-12-31T14:20:22.711Z,11.22
2022-12-31T14:23:29.586Z,11.12
2022-12-31T14:26:03.382Z,11.14
2022-12-31T14:29:09.043Z,11.32
2022-12-31T14:32:01.850Z,11.76
2022-12-31T14:34:52.352Z,12.12
2022-12-31T14:37:42.679Z,12.37
2022-12-31T14:40:17.678Z,12.53
2022-12-31T14:43:07.055Z,12.78
2022-12-31T14:45:46.257Z,12.88
2022-12-31T14:48:51.447Z,12.86
2022-12-31T14:51:19.052Z,12.96
2022-12-31T14:53:54.831Z,12.91
2022-12-31T14:56:40.525Z,12.97
2022-12-31T14:59:35.657Z,13.14
2022-12-31T15:02:24.676Z,13.27
2022-12-31T15:05:03.615Z,13.36
2022-12-31T15:07:48.677Z,13.50
2022-12-31T15:10:23.498Z,13.62
2022-12-31T15:13:08.048Z,13.72
2022-12-31T15:16:14.021Z,13.73
2022-12-31T15:18:49.824Z,13.60
2022-12-31T15:21:41.780Z,13.50
2022-12-31T15:24:31.186Z,13.29
2022-12-31T15:27:05.353Z,13.16
2022-12-31T15:29:51.209Z,13.05
2022-12-31T15:32:23.699Z,12.82
2022-12-31T15:35:05.556Z,12.54
2022-12-31T15:37:36.214Z,12.35
2022-12-31T15:40:25.397Z,12.18
2022-12-31T15:43:19.741Z,12.05
2022-12-31T15:45:48.632Z,11.98
2022-12-31T15:48:22.420Z,11.83
2022-12-31T15:50:52.287Z,11.72
2022-12-31T15:53:43.099Z,11.69
2022-12-31T15:56:27.361Z,11.48
2022-12-31T15:58:58.981Z,11.53
2022-12-31T16:01:36.635Z,11.36
2022-12-31T16:04:28.309Z,11.37
2022-12-31T16:07:01.463Z,11.01
2022-12-31T16:09:36.343Z,11.03
2022-12-31T16:12:16.398Z,11.12
2022-12-31T16:14:45.477Z,11.42
2022-12-31T16:17:35.348Z,11.70
2022-12-31T16:20:22.671Z,12.02
2022-12-31T16:23:00.552Z,12.37
2022-12-31T16:25:31.564Z,12.77
2022-12-31T16:28:03.124Z,13.14
2022-12-31T16:30:36.710Z,13.35
2022-12-31T16:33:07.533Z,13.48
2022-12-31T16:35:37.796Z,13.69
2022-12-31T16:38:08.243Z,13.73
2022-12-31T16:40:44.651Z,13.91
2022-12-31T16:43:38.105Z,14.04
2022-12-31T16:46:27.243Z,14.11
2022-12-31T16:49:04.787Z,14.28
2022-12-31T16:51:34.504Z,14.37
2022-12-31T16:54:02.835Z,14.39
2022-12-31T16:56:39.799Z,14.48
2022-12-31T16:59:18.531Z,14.48
2022-12-31T17:01:47.321Z,14.49
2022-12-31T17:04:21.744Z,14.50
2022-12-31T17:06:54.850Z,14.45
2022-12-31T17:09:36.904Z,14.42
2022-12-31T17:12:19.768Z,14.47
2022-12-31T17:15:05.677Z,14.54
2022-12-31T17:17:38.281Z,14.65
2022-12-31T17:20:09.644Z,14.56
2022-12-31T17:22:46.733Z,14.49
2022-12-31T17:25:25.676Z,14.37
2022-12-31T17:27:58.785Z,14.36
2022-12-31T17:30:28.751Z,14.31
2022-12-31T17:33:09.764Z,14.28
2022-12-31T17:35:49.854Z,13.95
2022-12-31T17:38:23.879Z,13.62
2022-12-31T17:41:05.677Z,13.16
2022-12-31T17:43:38.385Z,12.83
2022-12-31T17:46:17.269Z,12.35
2022-12-31T17:48:55.543Z,12.04
2022-12-31T17:51:24.288Z,11.78
2022-12-31T17:53:51.964Z,11.54
2022-12-31T17:56:20.624Z,11.46
2022-12-31T17:58:51.826Z,11.42
2022-12-31T18:01:21.950Z,11.37
2022-12-31T18:03:49.237Z,11.31
2022-12-31T18:06:17.413Z,11.37
2022-12-31T18:08:44.989Z,11.39
2022-12-31T18:11:18.209Z,11.51
2022-12-31T18:13:45.767Z,11.67
2022-12-31T18:16:15.774Z,11.69
2022-12-31T18:18:44.049Z,11.66
2022-12-31T18:21:35.197Z,11.71
2022-12-31T18:26:33.357Z,11.77
2022-12-31T18:29:17.919Z,11.85
2022-12-31T18:31:47.043Z,11.92
2022-12-31T18:34:20.700Z,12.00
2022-12-31T18:36:48.144Z,12.13
2022-12-31T18:39:15.591Z,12.29
2022-12-31T18:41:49.859Z,12.49
2022-12-31T18:44:17.799Z,12.70
2022-12-31T18:46:45.203Z,12.78
2022-12-31T18:49:14.576Z,12.77
2022-12-31T18:51:42.026Z,12.99
2022-12-31T18:54:12.334Z,13.09
2022-12-31T18:56:43.437Z,13.28
2022-12-31T18:59:14.841Z,13.45
2022-12-31T19:01:42.312Z,13.60
2022-12-31T19:04:27.711Z,13.67
2022-12-31T19:06:56.945Z,13.71
2022-12-31T19:09:44.611Z,13.76
2022-12-31T19:12:15.295Z,13.81
2022-12-31T19:14:43.034Z,13.88
2022-12-31T19:17:11.387Z,13.91
2022-12-31T19:19:38.845Z,13.93
2022-12-31T19:22:06.438Z,14.02
2022-12-31T19:24:34.581Z,14.19
2022-12-31T19:27:01.816Z,14.15
2022-12-31T19:29:29.473Z,14.22
2022-12-31T19:31:58.364Z,14.15
2022-12-31T19:34:26.671Z,14.15
2022-12-31T19:36:54.132Z,14.10
2022-12-31T19:39:21.991Z,14.01
2022-12-31T19:41:56.636Z,14.01
2022-12-31T19:44:27.596Z,13.91
2022-12-31T19:46:54.753Z,13.83
2022-12-31T19:49:27.770Z,13.70
2022-12-31T19:51:55.269Z,13.63
2022-12-31T19:54:23.699Z,13.53
2022-12-31T19:56:51.200Z,13.62
2022-12-31T19:59:18.684Z,13.55
2022-12-31T20:01:48.208Z,13.63
2022-12-31T20:04:18.523Z,13.63
2022-12-31T20:06:45.594Z,13.58
2022-12-31T20:09:13.166Z,13.63
2022-12-31T20:11:40.608Z,13.64
2022-12-31T20:14:10.413Z,13.62
2022-12-31T20:16:37.533Z,13.59
2022-12-31T20:19:06.331Z,13.44
2022-12-31T20:21:35.446Z,13.25
2022-12-31T20:24:02.969Z,12.98
2022-12-31T20:26:30.723Z,12.52
2022-12-31T20:28:57.944Z,12.20
2022-12-31T20:31:27.497Z,12.10
2022-12-31T20:33:56.388Z,12.13
2022-12-31T20:36:24.355Z,12.03
2022-12-31T20:38:51.915Z,12.13
2022-12-31T20:41:22.581Z,12.04
2022-12-31T20:43:50.299Z,11.97
2022-12-31T20:46:25.010Z,11.78
2022-12-31T20:48:54.467Z,11.72
2022-12-31T20:51:23.356Z,11.63
2022-12-31T20:53:59.830Z,11.39
2022-12-31T20:56:29.540Z,11.35
2022-12-31T20:58:57.580Z,11.24
2022-12-31T21:01:36.406Z,11.26
2022-12-31T21:04:13.971Z,11.24
2022-12-31T21:06:43.469Z,11.17
2022-12-31T21:09:11.193Z,11.48
2022-12-31T21:11:56.772Z,11.65
2022-12-31T21:14:24.499Z,11.75
2022-12-31T21:16:52.812Z,11.66
2022-12-31T21:19:20.376Z,11.70
2022-12-31T21:21:48.522Z,11.76
2022-12-31T21:24:23.314Z,11.75
2022-12-31T21:26:51.949Z,11.67
2022-12-31T21:29:19.282Z,11.54
2022-12-31T21:31:46.726Z,11.57
2022-12-31T21:34:15.297Z,11.62
2022-12-31T21:36:42.711Z,11.54
2022-12-31T21:39:10.215Z,11.44
2022-12-31T21:41:53.612Z,11.42
2022-12-31T21:44:23.651Z,11.30
2022-12-31T21:47:33.407Z,11.30
2022-12-31T21:49:43.298Z,11.19
2022-12-31T21:52:33.762Z,11.05
2022-12-31T21:55:21.404Z,10.98
2022-12-31T22:00:56.769Z,10.88
2022-12-31T22:03:29.632Z,10.91
2022-12-31T22:06:16.486Z,10.89
2022-12-31T22:08:49.130Z,10.73
2022-12-31T22:11:18.740Z,10.69
2022-12-31T22:13:48.172Z,10.64
2022-12-31T22:16:17.469Z,10.67
2022-12-31T22:18:45.002Z,10.54
2022-12-31T22:21:18.895Z,10.44
2022-12-31T22:23:53.122Z,10.41
2022-12-31T22:26:25.863Z,10.50
2022-12-31T22:28:59.528Z,10.56
2022-12-31T22:31:31.463Z,10.57
2022-12-31T22:34:00.145Z,10.62
2022-12-31T22:36:27.976Z,10.78
2022-12-31T22:38:58.707Z,10.70
2022-12-31T22:41:29.249Z,10.62
2022-12-31T22:44:03.468Z,10.37
2022-12-31T22:46:32.449Z,10.50
2022-12-31T22:49:02.280Z,10.72
2022-12-31T22:51:56.281Z,10.93
2022-12-31T22:54:22.194Z,11.46
2022-12-31T22:56:51.520Z,11.88
2022-12-31T22:59:20.088Z,12.02
2022-12-31T23:01:47.628Z,12.30
2022-12-31T23:04:15.591Z,12.47
2022-12-31T23:06:45.801Z,12.42
2022-12-31T23:09:34.467Z,12.28
2022-12-31T23:12:06.476Z,12.09
2022-12-31T23:15:11.797Z,12.04
2022-12-31T23:18:00.001Z,11.85
2022-12-31T23:20:45.947Z,11.69
2022-12-31T23:23:16.777Z,11.68
2022-12-31T23:25:48.275Z,11.61
2022-12-31T23:28:22.273Z,11.49
2022-12-31T23:30:54.030Z,11.44
2022-12-31T23:33:23.821Z,11.38
2022-12-31T23:36:01.996Z,11.34
2022-12-31T23:38:29.156Z,11.20
2022-12-31T23:41:00.649Z,11.18
2022-12-31T23:43:29.086Z,11.21
2022-12-31T23:45:56.477Z,11.25
2022-12-31T23:48:24.044Z,11.11
2022-12-31T23:50:54.004Z,11.00
2022-12-31T23:53:23.642Z,10.83
2022-12-31T23:55:51.639Z,10.66
2022-12-31T23:58:25.121Z,10.52
